createdAt,value
2022-10-26T00:01:21.436Z,8.80
2022-10-26T00:06:25.194Z,8.77
2022-10-26T00:11:26.870Z,8.72
2022-10-26T00:16:28.614Z,8.69
2022-10-26T00:21:30.290Z,8.65
2022-10-26T00:26:31.997Z,8.57
2022-10-26T00:31:34.308Z,8.51
2022-10-26T00:36:35.989Z,8.50
2022-10-26T00:41:39.002Z,8.43
2022-10-26T00:46:40.641Z,8.37
2022-10-26T00:51:47.569Z,8.31
2022-10-26T00:56:50.738Z,8.25
2022-10-26T01:01:52.385Z,8.24
2022-10-26T01:06:54.029Z,8.20
2022-10-26T01:11:55.750Z,8.16
2022-10-26T01:17:16.114Z,8.08
2022-10-26T01:22:41.014Z,8.03
2022-10-26T01:27:44.335Z,8.02
2022-10-26T01:33:27.337Z,7.99
2022-10-26T01:38:57.919Z,7.97
2022-10-26T01:44:02.615Z,7.97
2022-10-26T01:49:07.770Z,7.92
2022-10-26T01:54:09.455Z,7.84
2022-10-26T01:59:48.676Z,7.80
2022-10-26T02:05:04.843Z,7.79
2022-10-26T02:10:33.393Z,7.77
2022-10-26T02:15:39.429Z,7.74
2022-10-26T02:20:44.832Z,7.76
2022-10-26T02:25:48.904Z,7.74
2022-10-26T02:30:51.056Z,7.71
2022-10-26T02:35:53.029Z,7.68
2022-10-26T02:40:54.649Z,7.64
2022-10-26T02:46:07.531Z,7.63
2022-10-26T02:51:54.791Z,7.68
2022-10-26T02:56:59.452Z,7.76
2022-10-26T03:02:01.124Z,7.79
2022-10-26T03:07:02.793Z,7.85
2022-10-26T03:12:04.807Z,7.90
2022-10-26T03:17:06.446Z,7.93
2022-10-26T03:22:08.088Z,7.92
2022-10-26T03:27:09.868Z,7.88
2022-10-26T03:32:11.559Z,7.83
2022-10-26T03:37:13.263Z,7.79
2022-10-26T03:42:14.914Z,7.76
2022-10-26T03:47:16.545Z,7.73
2022-10-26T03:52:18.238Z,7.72
2022-10-26T03:57:19.888Z,7.72
2022-10-26T04:02:21.533Z,7.72
2022-10-26T04:07:23.207Z,7.72
2022-10-26T04:12:24.869Z,7.73
2022-10-26T04:17:26.503Z,7.76
2022-10-26T04:22:28.226Z,7.67
2022-10-26T04:27:29.871Z,7.63
2022-10-26T04:32:31.574Z,7.63
2022-10-26T04:37:33.636Z,7.62
2022-10-26T04:42:45.135Z,7.56
2022-10-26T04:47:46.735Z,7.57
2022-10-26T04:52:50.565Z,7.60
2022-10-26T04:57:55.858Z,7.59
2022-10-26T05:03:04.110Z,7.58
2022-10-26T05:08:05.859Z,7.53
2022-10-26T05:13:07.505Z,7.53
2022-10-26T05:18:09.274Z,7.47
2022-10-26T05:23:11.761Z,7.40
2022-10-26T05:28:13.638Z,7.37
2022-10-26T05:33:15.375Z,7.36
2022-10-26T05:38:17.548Z,7.34
2022-10-26T05:43:19.912Z,7.32
2022-10-26T05:48:21.707Z,7.35
2022-10-26T05:53:23.423Z,7.32
2022-10-26T05:58:25.459Z,7.31
2022-10-26T06:03:56.739Z,7.28
2022-10-26T06:08:58.769Z,7.25
2022-10-26T06:14:01.182Z,7.28
2022-10-26T06:19:13.271Z,7.28
2022-10-26T06:24:22.121Z,7.29
2022-10-26T06:29:43.575Z,7.30
2022-10-26T06:34:46.945Z,7.28
2022-10-26T06:39:51.411Z,7.30
2022-10-26T06:44:55.814Z,7.32
2022-10-26T06:50:28.004Z,7.35
2022-10-26T06:55:29.639Z,7.46
2022-10-26T07:05:34.026Z,7.58
2022-10-26T07:10:38.783Z,7.62
2022-10-26T07:15:40.973Z,7.65
2022-10-26T07:20:42.690Z,7.69
2022-10-26T07:25:44.361Z,7.72
2022-10-26T07:30:46.042Z,7.79
2022-10-26T07:35:47.762Z,7.83
2022-10-26T07:40:50.445Z,7.83
2022-10-26T07:45:52.137Z,7.86
2022-10-26T07:50:53.800Z,7.90
2022-10-26T07:55:56.047Z,7.98
2022-10-26T08:00:57.819Z,8.08
2022-10-26T08:05:59.677Z,8.20
2022-10-26T08:11:01.296Z,8.32
2022-10-26T08:16:04.123Z,8.47
2022-10-26T08:21:11.217Z,8.61
2022-10-26T08:26:13.449Z,8.77
2022-10-26T08:31:15.118Z,8.89
2022-10-26T08:36:19.906Z,9.05
2022-10-26T08:41:34.030Z,9.22
2022-10-26T08:46:38.016Z,9.38
2022-10-26T08:51:39.789Z,9.55
2022-10-26T08:56:45.968Z,9.74
2022-10-26T09:01:50.389Z,9.99
2022-10-26T09:07:02.511Z,10.30
2022-10-26T09:12:10.895Z,10.61
2022-10-26T09:17:33.267Z,10.97
2022-10-26T09:22:56.741Z,11.34
2022-10-26T09:28:00.664Z,11.64
2022-10-26T09:33:14.989Z,11.90
2022-10-26T09:38:30.690Z,12.19
2022-10-26T09:48:55.361Z,12.64
2022-10-26T09:53:57.533Z,12.80
2022-10-26T09:59:04.438Z,12.95
2022-10-26T10:04:20.066Z,13.12
2022-10-26T10:09:22.826Z,13.31
2022-10-26T10:14:47.396Z,13.50
2022-10-26T10:19:49.024Z,13.72
2022-10-26T10:24:55.408Z,13.90
2022-10-26T10:30:01.329Z,14.02
2022-10-26T10:35:25.263Z,14.13
2022-10-26T10:40:27.848Z,14.23
2022-10-26T10:45:30.188Z,14.31
2022-10-26T10:50:32.823Z,14.45
2022-10-26T10:55:34.469Z,14.59
2022-10-26T11:00:36.927Z,14.68
2022-10-26T11:05:45.420Z,14.73
2022-10-26T11:10:51.584Z,14.90
2022-10-26T11:15:56.558Z,15.07
2022-10-26T11:21:23.046Z,15.34
2022-10-26T11:26:31.305Z,15.55
2022-10-26T11:31:42.136Z,15.79
2022-10-26T11:36:44.197Z,15.98
2022-10-26T11:42:00.879Z,16.22
2022-10-26T11:47:18.074Z,16.38
2022-10-26T11:52:28.607Z,16.43
2022-10-26T11:57:32.304Z,16.45
2022-10-26T12:07:50.462Z,16.71
2022-10-26T12:13:34.250Z,16.77
2022-10-26T12:19:01.279Z,16.83
2022-10-26T12:24:22.842Z,16.87
2022-10-26T12:29:45.379Z,16.97
2022-10-26T12:34:47.097Z,17.06
2022-10-26T12:39:48.773Z,17.23
2022-10-26T12:44:53.431Z,17.35
2022-10-26T12:50:02.563Z,17.44
2022-10-26T12:55:22.422Z,17.69
2022-10-26T13:00:27.345Z,18.01
2022-10-26T13:06:06.273Z,18.10
2022-10-26T13:11:15.457Z,18.32
2022-10-26T13:16:17.130Z,18.40
2022-10-26T13:21:19.742Z,18.44
2022-10-26T13:26:24.088Z,18.46
2022-10-26T13:31:28.576Z,18.50
2022-10-26T13:36:36.953Z,18.48
2022-10-26T13:41:40.639Z,18.37
2022-10-26T13:46:42.318Z,18.30
2022-10-26T13:51:44.845Z,18.32
2022-10-26T13:57:17.442Z,18.32
2022-10-26T14:02:20.117Z,18.40
2022-10-26T14:07:24.488Z,18.47
2022-10-26T14:12:26.595Z,18.43
2022-10-26T14:17:28.211Z,18.39
2022-10-26T14:22:30.091Z,18.38
2022-10-26T14:27:32.918Z,18.41
2022-10-26T14:32:36.604Z,18.36
2022-10-26T14:37:58.004Z,18.33
2022-10-26T14:42:59.908Z,18.33
2022-10-26T14:48:02.101Z,18.29
2022-10-26T14:53:14.657Z,18.22
2022-10-26T15:03:29.186Z,18.02
2022-10-26T15:08:55.991Z,17.95
2022-10-26T15:13:58.322Z,17.83
2022-10-26T15:19:06.540Z,17.76
2022-10-26T15:24:17.677Z,17.60
2022-10-26T15:29:44.068Z,17.46
2022-10-26T15:35:19.413Z,17.27
2022-10-26T15:40:21.299Z,17.11
2022-10-26T15:45:24.741Z,16.96
2022-10-26T15:50:27.771Z,16.79
2022-10-26T15:55:29.567Z,16.64
2022-10-26T16:00:31.222Z,16.50
2022-10-26T16:05:32.894Z,16.35
2022-10-26T16:10:34.552Z,16.20
2022-10-26T16:15:36.375Z,16.06
2022-10-26T16:20:38.017Z,15.95
2022-10-26T16:25:44.414Z,15.87
2022-10-26T16:30:46.054Z,15.78
2022-10-26T16:35:55.391Z,15.67
2022-10-26T16:41:18.518Z,15.56
2022-10-26T16:46:20.709Z,15.42
2022-10-26T16:51:26.752Z,15.30
2022-10-26T16:56:29.810Z,15.20
2022-10-26T17:01:32.232Z,15.07
2022-10-26T17:06:33.947Z,14.97
2022-10-26T17:11:35.586Z,14.86
2022-10-26T17:16:37.238Z,14.77
2022-10-26T17:21:38.911Z,14.67
2022-10-26T17:26:40.658Z,14.58
2022-10-26T17:31:42.357Z,14.51
2022-10-26T17:36:44.124Z,14.42
2022-10-26T17:41:46.131Z,14.31
2022-10-26T17:46:47.775Z,14.23
2022-10-26T17:51:49.443Z,14.15
2022-10-26T17:56:51.119Z,14.10
2022-10-26T18:01:52.891Z,14.06
2022-10-26T18:06:54.604Z,14.01
2022-10-26T18:11:56.489Z,13.93
2022-10-26T18:16:58.193Z,13.86
2022-10-26T18:22:00.457Z,13.78
2022-10-26T18:27:02.105Z,13.76
2022-10-26T18:32:03.949Z,13.73
2022-10-26T18:37:05.739Z,13.70
2022-10-26T18:42:07.372Z,13.70
2022-10-26T18:47:09.012Z,13.71
2022-10-26T18:52:10.705Z,13.69
2022-10-26T18:57:12.389Z,13.66
2022-10-26T19:02:14.583Z,13.62
2022-10-26T19:07:16.472Z,13.57
2022-10-26T19:12:18.101Z,13.52
2022-10-26T19:17:19.846Z,13.50
2022-10-26T19:22:21.576Z,13.47
2022-10-26T19:27:23.213Z,13.44
2022-10-26T19:32:28.208Z,13.43
2022-10-26T19:37:29.906Z,13.41
2022-10-26T19:42:31.545Z,13.39
2022-10-26T19:47:33.200Z,13.36
2022-10-26T19:52:36.465Z,13.34
2022-10-26T19:57:38.204Z,13.31
2022-10-26T20:02:39.876Z,13.27
2022-10-26T20:07:41.510Z,13.26
2022-10-26T20:12:43.190Z,13.30
2022-10-26T20:17:44.864Z,13.31
2022-10-26T20:22:46.714Z,13.31
2022-10-26T20:27:48.831Z,13.27
2022-10-26T20:32:50.745Z,13.22
2022-10-26T20:37:53.703Z,13.19
2022-10-26T20:42:55.761Z,13.18
2022-10-26T20:47:58.173Z,13.12
2022-10-26T20:53:02.712Z,13.07
2022-10-26T20:58:09.423Z,12.99
2022-10-26T21:03:12.816Z,12.96
2022-10-26T21:08:14.795Z,12.94
2022-10-26T21:13:16.561Z,12.91
2022-10-26T21:18:18.254Z,12.88
2022-10-26T21:23:19.956Z,12.82
2022-10-26T21:28:21.642Z,12.79
2022-10-26T21:33:31.746Z,12.73
2022-10-26T21:38:33.552Z,12.70
2022-10-26T21:43:36.069Z,12.64
2022-10-26T21:48:37.776Z,12.60
2022-10-26T21:53:39.975Z,12.53
2022-10-26T21:58:41.715Z,12.48
2022-10-26T22:03:43.531Z,12.42
2022-10-26T22:08:45.935Z,12.37
2022-10-26T22:13:48.256Z,12.32
2022-10-26T22:18:50.811Z,12.29
2022-10-26T22:23:52.624Z,12.30
2022-10-26T22:28:55.873Z,12.28
2022-10-26T22:34:01.962Z,12.29
2022-10-26T22:39:06.509Z,12.28
2022-10-26T22:44:08.123Z,12.27
2022-10-26T22:49:11.033Z,12.26
2022-10-26T22:54:12.885Z,12.23
2022-10-26T22:59:14.525Z,12.20
2022-10-26T23:04:16.621Z,12.17
2022-10-26T23:09:18.872Z,12.14
2022-10-26T23:14:20.575Z,12.09
2022-10-26T23:19:22.193Z,12.06
2022-10-26T23:24:23.849Z,12.06
2022-10-26T23:29:25.493Z,12.04
2022-10-26T23:34:27.434Z,12.01
2022-10-26T23:39:29.055Z,12.02
2022-10-26T23:44:30.734Z,11.99
2022-10-26T23:49:32.457Z,12.01
2022-10-26T23:54:34.105Z,12.00
2022-10-26T23:59:35.754Z,11.93
